Latest Weather Observations for Viewbank

IDV60801

Issued at 11:32 pm EST Friday 16 April 2021 (issued every 10 minutes, with the page automatically refreshed every 10 minutes)

About weather observations | Map of weather stations | Latest weather observations for VIC | Other Formats
Station Details ID: 086068 Name: VIEWBANK Lat: -37.74 Lon: 145.10 Height: 66.1 m
Data from the previous 72 hours. | See also: Recent months at Viewbank
Date/Time
EST
Temp
°C
App
Temp
°C
Dew
Point
°C
Rel
Hum
%
Delta-T
°C
Wind Press
QNH
hPa
Press
MSL
hPa
Rain since
9am
mm
Dir  Spd
km/h
Gust
km/h
Spd
kts
Gust
kts
16/11:30pm 12.2 10.0 5.4 63 3.1 SSE 6 9 3 5 1024.8 1024.8 0.0
16/11:00pm 12.1 11.0 5.3 63 3.1 CALM 0 0 0 0 1024.9 1024.9 0.0
16/10:30pm 12.2 11.2 5.4 63 3.2 CALM 0 0 0 0 1025.0 1025.0 0.0
16/10:00pm 12.2 11.1 5.1 62 3.3 CALM 0 0 0 0 1025.0 1025.0 0.0
16/09:30pm 12.4 10.9 4.9 60 3.5 SSE 2 6 1 3 1025.1 1025.1 0.0
16/09:00pm 12.4 11.3 4.9 60 3.4 CALM 0 6 0 3 1025.0 1025.0 0.0
16/08:30pm 12.6 10.2 4.3 57 3.8 S 6 9 3 5 1025.1 1025.1 0.0
16/08:00pm 12.9 9.9 4.3 56 3.9 S 9 15 5 8 1025.0 1025.0 0.0
16/07:30pm 12.7 10.9 5.4 61 3.4 SSE 4 9 2 5 1024.9 1024.9 0.0
16/07:00pm 13.0 10.7 4.9 58 3.7 SSE 6 9 3 5 1024.7 1024.7 0.0
16/06:30pm 13.0 10.9 5.7 61 3.4 S 6 11 3 6 1024.5 1024.5 0.0
16/06:00pm 13.1 11.0 6.5 64 3.1 SSW 7 9 4 5 1024.2 1024.2 0.0
16/05:30pm 13.3 10.7 6.2 62 3.4 S 9 17 5 9 1024.1 1024.1 0.0
16/05:00pm 13.6 11.3 5.7 59 3.7 S 7 9 4 5 1024.1 1024.1 0.0
16/04:30pm 13.9 11.1 5.3 56 4.0 SSW 9 15 5 8 1024.0 1024.0 0.0
16/04:00pm 13.9 11.1 7.0 63 3.3 SSW 11 17 6 9 1023.9 1023.9 0.0
16/03:30pm 13.8 11.0 6.9 63 3.4 SSW 11 17 6 9 1023.8 1023.8 0.0
16/03:00pm 14.1 10.9 6.9 62 3.5 SW 13 20 7 11 1023.7 1023.7 0.0
16/02:30pm 14.4 11.1 6.5 59 3.8 SSW 13 20 7 11 1023.6 1023.6 0.0
16/02:00pm 14.1 11.3 6.9 62 3.5 SSW 11 20 6 11 1023.5 1023.5 0.0
16/01:30pm 14.0 11.5 8.0 67 3.0 S 11 15 6 8 1023.6 1023.6 0.0
16/01:00pm 13.6 10.6 7.8 68 2.9 S 13 19 7 10 1023.9 1023.9 0.0
16/12:30pm 13.4 12.4 8.9 74 2.3 SE 4 11 2 6 1024.3 1024.3 0.0
16/12:00pm 13.2 12.5 8.5 73 2.3 SW 2 11 1 6 1024.5 1024.5 0.0
16/11:30am 13.1 13.0 9.4 78 1.9 CALM 0 0 0 0 1024.7 1024.7 0.0
16/11:00am 12.5 12.5 9.9 84 1.3 CALM 0 0 0 0 1024.7 1024.7 0.0
16/10:30am 12.2 12.5 10.8 91 0.7 CALM 0 0 0 0 1024.6 1024.6 0.0
16/10:00am 11.7 12.0 10.8 94 0.5 CALM 0 0 0 0 1024.5 1024.5 0.0
16/09:30am 11.2 10.8 11.0 99 0.1 WSW 4 6 2 3 1024.3 1024.3 0.0
16/09:00am 11.0 10.1 10.8 99 0.1 W 6 9 3 5 1024.2 1024.2 1.2
16/08:30am 10.4 10.5 10.2 99 0.1 CALM 0 0 0 0 1023.9 1023.9 1.2
16/08:00am 10.3 9.2 10.1 99 0.1 W 6 9 3 5 1023.3 1023.3 1.0
16/07:30am 10.1 9.0 10.0 99 0.1 WSW 6 9 3 5 1023.0 1023.0 1.0
16/07:00am 10.2 10.1 9.6 96 0.3 CALM 0 7 0 4 1022.5 1022.5 1.0
16/06:30am 10.2 9.7 9.3 94 0.4 W 2 7 1 4 1022.0 1021.9 1.0
16/06:00am 10.0 8.4 8.9 93 0.5 W 7 13 4 7 1021.9 1021.8 1.0
16/05:30am 10.6 9.6 9.0 90 0.8 W 4 7 2 4 1021.6 1021.5 1.0
16/05:00am 11.1 9.5 8.7 85 1.2 WSW 7 13 4 7 1021.4 1021.3 1.0
16/04:30am 11.0 9.4 8.9 87 1.0 SW 7 15 4 8 1021.2 1021.1 1.0
16/04:00am 10.5 9.1 9.7 95 0.4 WSW 7 9 4 5 1021.1 1021.0 1.0
16/03:30am 10.4 9.1 9.9 97 0.3 WSW 7 9 4 5 1020.9 1020.8 1.0
16/03:00am 10.8 9.7 10.6 99 0.1 SW 7 13 4 7 1020.6 1020.5 1.0
16/02:30am 10.6 9.1 10.4 99 0.1 W 9 15 5 8 1020.7 1020.6 1.0
16/02:00am 11.1 9.6 10.5 96 0.3 WSW 9 13 5 7 1020.5 1020.4 1.0
16/01:30am 11.2 9.2 10.1 93 0.6 WSW 11 17 6 9 1020.5 1020.4 1.0
16/01:00am 11.6 9.7 10.5 93 0.6 WSW 11 17 6 9 1020.3 1020.2 1.0
16/12:30am 12.2 10.7 11.9 98 0.2 WSW 11 17 6 9 1020.1 1020.0 1.0
16/12:00am 12.7 11.0 12.5 99 0.1 WSW 13 22 7 12 1019.9 1019.8 1.0
 
Date/Time
EST
Temp
°C
App
Temp
°C
Dew
Point
°C
Rel
Hum
%
Delta-T
°C
Wind Press
QNH
hPa
Press
MSL
hPa
Rain since
9am
mm
Dir  Spd
km/h
Gust
km/h
Spd
kts
Gust
kts
15/11:30pm 12.8 11.4 12.3 97 0.3 WSW 11 19 6 10 1019.7 1019.6 1.0
15/11:00pm 12.7 11.3 12.1 96 0.3 WSW 11 19 6 10 1019.5 1019.4 1.0
15/10:30pm 12.9 12.0 12.7 99 0.1 WSW 9 15 5 8 1019.4 1019.3 1.0
15/10:00pm 12.9 12.0 12.7 99 0.1 W 9 15 5 8 1019.3 1019.2 1.0
15/09:30pm 12.6 11.3 12.4 99 0.1 WSW 11 19 6 10 1019.2 1019.1 1.0
15/09:00pm 13.8 11.9 11.8 88 1.1 WSW 13 24 7 13 1018.9 1018.8 0.8
15/08:30pm 13.8 11.7 11.1 84 1.4 WSW 13 19 7 10 1018.4 1018.3 0.8
15/08:00pm 14.5 12.9 11.7 83 1.5 WSW 11 19 6 10 1018.1 1018.0 0.8
15/07:30pm 14.5 12.4 11.3 81 1.7 WSW 13 22 7 12 1017.7 1017.6 0.8
15/07:00pm 14.5 13.3 11.5 82 1.6 W 9 17 5 9 1017.2 1017.1 0.8
15/06:30pm 14.3 13.7 12.3 88 1.1 W 7 15 4 8 1016.9 1016.8 0.8
15/06:00pm 14.8 13.6 11.6 81 1.7 WNW 9 15 5 8 1016.3 1016.2 0.8
15/05:30pm 15.0 13.9 12.0 82 1.6 W 9 13 5 7 1016.1 1016.0 0.8
15/05:00pm 14.5 13.6 12.5 88 1.1 WNW 9 15 5 8 1015.9 1015.8 0.8
15/04:30pm 14.5 13.3 12.9 90 0.9 WNW 11 20 6 11 1016.0 1015.9 0.8
15/04:00pm 15.3 14.0 11.3 77 2.1 WSW 9 13 5 7 1015.9 1015.8 0.6
15/03:30pm 15.7 14.4 11.3 75 2.4 W 9 19 5 10 1015.4 1015.3 0.4
15/03:00pm 15.1 11.9 11.3 78 2.0 WSW 19 35 10 19 1015.5 1015.4 0.4
15/02:30pm 18.8 14.1 5.3 41 6.6 WNW 19 32 10 17 1014.5 1014.4 0.0
15/02:00pm 19.4 15.4 6.5 43 6.5 WNW 17 33 9 18 1014.5 1014.4 0.0
15/01:30pm 19.4 15.6 5.8 41 6.7 WNW 15 26 8 14 1014.8 1014.7 0.0
15/01:00pm 19.1 13.5 5.2 40 6.8 WNW 24 37 13 20 1014.9 1014.8 0.0
15/12:30pm 18.6 14.9 6.1 44 6.2 W 15 32 8 17 1015.3 1015.2 0.0
15/12:00pm 19.1 14.3 5.6 41 6.6 W 20 39 11 21 1015.6 1015.5 0.0
15/11:30am 18.9 15.2 6.1 43 6.3 WNW 15 28 8 15 1015.9 1015.8 0.0
15/11:00am 18.1 14.3 6.0 45 5.9 W 15 30 8 16 1016.0 1015.9 0.0
15/10:30am 17.5 12.9 5.4 45 5.9 W 19 35 10 19 1016.0 1015.9 0.0
15/10:00am 16.8 12.3 6.3 50 5.1 WNW 19 32 10 17 1016.2 1016.1 0.0
15/09:30am 16.2 13.0 6.9 54 4.6 WNW 13 24 7 13 1016.4 1016.3 0.0
15/09:00am 14.9 12.0 6.5 57 4.1 WNW 11 20 6 11 1016.3 1016.2 0.0
15/08:30am 14.2 11.3 6.6 60 3.7 NW 11 19 6 10 1016.4 1016.3 0.0
15/08:00am 13.8 10.8 5.9 59 3.8 NW 11 19 6 10 1016.1 1016.0 0.0
15/07:30am 13.1 10.5 6.0 62 3.4 NNW 9 13 5 7 1015.9 1015.8 0.0
15/07:00am 13.5 10.5 5.9 60 3.6 NW 11 19 6 10 1015.7 1015.6 0.0
15/06:30am 13.2 10.6 6.1 62 3.4 NW 9 15 5 8 1015.6 1015.5 0.0
15/06:00am 13.1 10.8 5.8 61 3.4 NW 7 13 4 7 1015.5 1015.4 0.0
15/05:30am 13.3 10.2 5.5 59 3.7 NW 11 17 6 9 1015.4 1015.3 0.0
15/05:00am 13.6 10.1 5.5 58 3.8 NW 13 20 7 11 1015.3 1015.2 0.0
15/04:30am 13.4 10.7 5.8 60 3.6 NNW 9 15 5 8 1015.2 1015.1 0.0
15/04:00am 13.4 10.3 5.6 59 3.7 NW 11 17 6 9 1015.1 1015.0 0.0
15/03:30am 13.4 9.9 5.6 59 3.7 NW 13 19 7 10 1015.1 1015.0 0.0
15/03:00am 13.0 10.4 6.1 63 3.3 NW 9 17 5 9 1015.2 1015.1 0.0
15/02:30am 12.6 9.7 6.6 67 2.9 NW 11 17 6 9 1015.5 1015.4 0.0
15/02:00am 11.6 9.1 6.7 72 2.3 WNW 9 13 5 7 1015.7 1015.6 0.0
15/01:30am 11.7 9.3 7.0 73 2.3 WNW 9 15 5 8 1015.9 1015.8 0.0
15/01:00am 11.8 10.0 7.1 73 2.3 WNW 6 11 3 6 1015.9 1015.8 0.0
15/12:30am 12.2 10.2 7.3 72 2.4 WNW 7 11 4 6 1015.7 1015.6 0.0
15/12:00am 12.2 9.9 7.5 73 2.3 W 9 15 5 8 1015.6 1015.5 0.0
 
Date/Time
EST
Temp
°C
App
Temp
°C
Dew
Point
°C
Rel
Hum
%
Delta-T
°C
Wind Press
QNH
hPa
Press
MSL
hPa
Rain since
9am
mm
Dir  Spd
km/h
Gust
km/h
Spd
kts
Gust
kts
14/11:30pm 12.3 10.6 8.4 77 1.9 W 7 13 4 7 1015.8 1015.7 0.0
14/11:00pm 12.7 11.2 9.2 79 1.8 WNW 7 11 4 6 1015.9 1015.8 0.0
14/10:30pm 13.0 11.6 9.6 80 1.7 NW 7 9 4 5 1015.9 1015.8 0.0
14/10:00pm 13.5 11.4 9.9 79 1.9 WSW 11 20 6 11 1015.8 1015.7 0.0
14/09:30pm 13.9 12.2 9.9 77 2.1 WSW 9 19 5 10 1015.9 1015.8 0.0
14/09:00pm 14.4 12.3 9.6 73 2.5 W 11 19 6 10 1015.7 1015.6 0.0
14/08:30pm 15.2 12.1 10.2 72 2.6 W 17 26 9 14 1015.4 1015.3 0.0
14/08:00pm 15.7 12.1 9.8 68 3.1 W 19 32 10 17 1015.0 1014.9 0.0
14/07:30pm 15.9 12.7 9.8 67 3.2 W 17 24 9 13 1014.8 1014.7 0.0
14/07:00pm 16.1 13.3 10.0 67 3.2 WSW 15 26 8 14 1014.4 1014.3 0.0
14/06:30pm 16.6 13.0 9.8 64 3.6 WSW 19 30 10 16 1013.8 1013.7 0.0
14/06:00pm 16.7 13.5 9.9 64 3.6 WSW 17 28 9 15 1013.4 1013.3 0.0
14/05:30pm 17.5 15.2 10.6 64 3.7 SW 13 24 7 13 1012.8 1012.7 0.0
14/05:00pm 18.6 14.7 8.8 53 5.1 WSW 19 30 10 16 1012.1 1012.1 0.0
14/04:30pm 18.8 15.1 9.6 55 4.9 W 19 32 10 17 1011.9 1011.9 0.0
14/04:00pm 18.4 14.7 10.3 59 4.3 W 20 43 11 23 1011.9 1011.9 0.0
14/03:30pm 19.4 15.2 8.4 49 5.7 W 20 37 11 20 1011.3 1011.3 0.0
14/03:00pm 20.1 16.4 7.8 45 6.4 W 17 30 9 16 1011.0 1011.0 0.0
14/02:30pm 21.2 16.4 7.4 41 7.1 WNW 22 43 12 23 1011.0 1011.0 0.0
14/02:00pm 19.5 15.8 10.2 55 5.0 WSW 20 35 11 19 1010.9 1010.9 0.0
14/01:30pm 20.8 17.5 9.7 49 6.0 WSW 17 30 9 16 1010.5 1010.5 0.0
14/01:00pm 20.5 16.8 7.8 44 6.6 WSW 17 26 9 14 1010.6 1010.6 0.0
14/12:30pm 20.2 17.0 8.5 47 6.1 W 15 24 8 13 1011.0 1011.0 0.0
14/12:00pm 20.7 17.6 8.7 46 6.3 W 15 30 8 16 1011.1 1011.1 0.0
14/11:30am 19.6 15.4 8.3 48 5.9 W 20 35 11 19 1011.3 1011.3 0.0
14/11:00am 20.2 16.1 8.8 48 6.0 W 20 33 11 18 1011.1 1011.1 0.0
14/10:45am 18.9 13.0 7.7 48 5.7 W 28 46 15 25 1011.1 1011.1 0.0
14/10:30am 19.8 15.2 8.2 47 6.0 W 22 37 12 20 1011.1 1011.1 0.0
14/10:00am 18.7 15.7 7.5 48 5.7 WNW 13 30 7 16 1010.9 1010.9 0.0
14/09:30am 18.0 14.9 7.4 50 5.4 NW 13 22 7 12 1011.1 1011.1 0.0
14/09:00am 17.3 14.1 6.8 50 5.2 NW 13 22 7 12 1011.2 1011.2 0.2
14/08:30am 16.7 13.5 6.8 52 4.9 NW 13 19 7 10 1010.9 1010.9 0.2
14/08:00am 16.5 13.7 6.9 53 4.8 WNW 11 19 6 10 1010.6 1010.6 0.2
14/07:30am 16.5 13.4 7.4 55 4.6 WNW 13 28 7 15 1010.5 1010.5 0.2
14/07:00am 16.4 13.4 9.1 62 3.8 W 15 26 8 14 1009.9 1009.9 0.2
14/06:30am 16.8 13.2 9.7 63 3.7 W 19 30 10 16 1009.5 1009.4 0.2
14/06:00am 18.9 14.4 4.3 38 7.0 NW 17 30 9 16 1008.7 1008.6 0.2
14/05:30am 19.0 14.2 5.5 41 6.6 NNW 20 37 11 20 1008.2 1008.1 0.2
14/05:00am 19.2 14.3 5.3 40 6.8 NW 20 35 11 19 1007.9 1007.8 0.2
14/04:30am 18.3 15.0 4.5 40 6.6 NNW 11 19 6 10 1007.7 1007.6 0.2
14/04:00am 18.1 14.1 4.7 41 6.4 N 15 24 8 13 1007.2 1007.1 0.2
14/03:30am 18.6 13.6 4.4 39 6.8 N 20 43 11 23 1007.0 1006.9 0.2
14/03:00am 19.1 13.2 3.7 36 7.3 N 24 46 13 25 1007.4 1007.3 0.2
14/02:30am 19.7 14.4 3.0 33 7.8 N 20 43 11 23 1007.7 1007.6 0.2
14/02:00am 19.2 14.5 3.4 35 7.5 N 17 33 9 18 1007.8 1007.7 0.2
14/01:30am 19.2 13.2 3.4 35 7.4 NNW 24 43 13 23 1008.5 1008.4 0.2
14/01:00am 18.2 12.9 5.1 42 6.4 NNW 22 44 12 24 1008.3 1008.2 0.2
14/12:30am 19.6 14.5 3.3 34 7.7 N 19 33 10 18 1008.9 1008.8 0.0
14/12:00am 19.6 14.3 2.9 33 7.8 N 20 35 11 19 1009.0 1008.9 0.0

Other formats

Comma delimited format used in spreadsheet applications
http://www.bom.gov.au/fwo/IDV60801/IDV60801.95874.axf

JavaScript Object Notation format (JSON) in row-major order
http://www.bom.gov.au/fwo/IDV60801/IDV60801.95874.json

Data quality

Most of these data are generated automatically and are frequently updated. Quality checks on data are not normally performed. It is possible for incorrect values to appear. Refer to information at About Latest Weather Observations and please check the disclaimer before using these data.